Airfield :
LOGIN :

Register | Disclaimer

   EN    FR    IT 

 










Legend :    VFR   Marginal VFR   IFR   Intensive IFR   Very Intensive IFR
Visi :
Ceiling :
>= 8 km
>= 3000ft
5 to 8 km
1000 to 3000 ft
1500m to 5 km
500 to 1000 ft
800 to 1500m
200 to 500 ft
< 800m
< 200 ft
Symbols :   Thunderstorms  Fog  Heavy snow  Heavy precipitations  Wind > 20 kt
SIGMETs :     Misc.  Thunderstorms  Icing  Turbulence  Mountain Waves  Volcanic Ashes







- Airport Elevation : 289 ft
- IATA code : ZAD


LDZD - Zadar

CURRENT METAR :
  • 171100Z VRB03KT CAVOK 14/06 Q1027 TEMPO 32010KT

EXPIRED METARs :
  • 171030Z VRB04KT CAVOK 13/07 Q1027 BECMG 32010KT
  • 171000Z VRB04KT CAVOK 12/06 Q1027 BECMG 32010KT
  • 170930Z 28005KT 250V320 CAVOK 10/08 Q1027 BECMG 32010KT
  • 170900Z 00000KT CAVOK 09/09 Q1028 NOSIG
  • 170830Z VRB02KT CAVOK 06/06 Q1028 NOSIG

TAF TAF LDZD
Valid from the 17 at 06:00 until the 18 at 06:00 UTC


170525Z 1706/1806 12005KT CAVOK TX15/1712Z TNM02/1805Z
BECMG 1711/1713 30010KT
BECMG 1716/1718 VRB02KT
TEMPO 1720/1806 2000 BCFG
PROB40
TEMPO 1721/1804 0800 FG
No reported NOTAMs for that airfield.



MET'MAP, your aeronautical weather chart ! - Copyright ORBIFLY December 2007 - Disclaimer

ORBIFLY MET'MAP TEAM :

Programming & Development : Alexandra Zaïnal
Concept & Development : Baudouin d'Aumeries
Co-Development & Prog : Marc-Olivier Méhu
Technical & hardware support : Manuel Goepfert

Contact : metmap@orbifly.com




SOURCES & CREDITS :

   NOAA